Time;durP1;ratioP1;P1;durP2;ratioP2;P2;SDS_P1;SDS_P2;PMS_P1;PMS_P2;Temp;Humidity;BMP_temperature;BMP_pressure;BME280_temperature;BME280_humidity;BME280_pressure;Samples;Min_cycle;Max_cycle;Signal;HPM_P1;HPM_P2
2023/06/14 00:00:14;;;;;;;5.53;1.27;;;17.50;69.20;;;;;;4988827;28;20065;-72
2023/06/14 00:02:41;;;;;;;6.65;1.50;;;17.50;69.20;;;;;;4995977;28;20049;-73
2023/06/14 00:05:07;;;;;;;3.03;1.20;;;17.40;69.20;;;;;;4984345;28;20125;-72
2023/06/14 00:07:42;;;;;;;2.47;1.08;;;17.40;69.40;;;;;;4993122;28;20065;-73
2023/06/14 00:10:08;;;;;;;5.75;1.65;;;17.40;69.60;;;;;;4994021;28;20226;-72
2023/06/14 00:12:35;;;;;;;3.97;1.20;;;17.30;69.70;;;;;;4994318;28;20034;-72
2023/06/14 00:15:03;;;;;;;;;;;17.30;69.90;;;;;;4994710;28;20053;-72
2023/06/14 00:17:32;;;;;;;3.67;1.08;;;17.20;70.20;;;;;;4993206;28;19918;-72
2023/06/14 00:19:58;;;;;;;3.05;1.40;;;17.20;70.00;;;;;;4990731;28;20049;-72
2023/06/14 00:22:28;;;;;;;;;;;17.20;70.30;;;;;;4996118;28;20607;-72
2023/06/14 00:24:54;;;;;;;3.85;1.40;;;17.10;71.40;;;;;;4987171;28;20275;-72
2023/06/14 00:27:20;;;;;;;4.28;1.40;;;17.10;70.70;;;;;;4993199;28;20120;-72
2023/06/14 00:29:46;;;;;;;4.28;1.33;;;17.00;70.80;;;;;;4993478;28;20480;-72
2023/06/14 00:32:11;;;;;;;3.83;1.38;;;17.00;71.20;;;;;;4987268;28;20050;-71
2023/06/14 00:34:37;;;;;;;5.25;1.63;;;17.00;71.40;;;;;;4994721;23;20046;-68
2023/06/14 00:37:05;;;;;;;3.60;1.40;;;17.00;71.70;;;;;;4978074;28;20054;-68
2023/06/14 00:39:31;;;;;;;3.28;1.30;;;17.00;71.90;;;;;;4994323;28;20054;-68
2023/06/14 00:41:57;;;;;;;4.13;1.60;;;17.00;72.10;;;;;;4981957;28;20058;-68
2023/06/14 00:44:23;;;;;;;2.88;1.10;;;17.00;72.60;;;;;;4989851;28;20046;-68
2023/06/14 00:46:49;;;;;;;2.15;1.13;;;16.90;72.70;;;;;;4999680;28;20050;-69
2023/06/14 00:49:17;;;;;;;2.38;1.13;;;16.90;72.80;;;;;;5000258;28;20061;-69
2023/06/14 00:51:43;;;;;;;6.03;1.40;;;16.80;73.10;;;;;;4999986;28;20112;-69
2023/06/14 00:54:09;;;;;;;3.65;1.27;;;16.80;73.40;;;;;;4993151;28;20125;-69
2023/06/14 00:56:35;;;;;;;;;;;16.80;73.80;;;;;;4999675;28;20068;-68
2023/06/14 00:59:03;;;;;;;4.65;1.58;;;16.70;74.90;;;;;;4997290;28;20008;-68
2023/06/14 01:01:33;;;;;;;3.90;1.10;;;16.70;74.30;;;;;;5003152;28;20042;-68
2023/06/14 01:04:01;;;;;;;3.25;1.48;;;16.70;74.50;;;;;;5002411;28;20060;-68
2023/06/14 01:06:50;;;;;;;4.90;1.13;;;16.70;75.00;;;;;;5002946;28;20530;-68
2023/06/14 01:09:33;;;;;;;3.15;1.17;;;16.60;75.50;;;;;;5001033;28;20373;-68
2023/06/14 01:12:11;;;;;;;3.00;1.17;;;16.60;75.80;;;;;;4999909;28;20047;-68
2023/06/14 01:14:37;;;;;;;4.07;1.35;;;16.60;76.20;;;;;;5001752;28;20048;-69
2023/06/14 01:17:04;;;;;;;4.53;1.17;;;16.50;76.30;;;;;;5000741;28;20058;-68
2023/06/14 01:19:33;;;;;;;4.53;1.23;;;16.50;76.50;;;;;;5004472;28;20042;-68
2023/06/14 01:22:02;;;;;;;4.70;1.13;;;16.50;76.70;;;;;;5006624;28;20402;-68
2023/06/14 01:24:31;;;;;;;3.55;1.55;;;16.50;77.00;;;;;;4999632;28;20128;-68
2023/06/14 01:26:59;;;;;;;12.63;1.38;;;16.50;77.40;;;;;;4996323;28;20045;-68
2023/06/14 01:29:27;;;;;;;4.35;1.00;;;16.50;77.80;;;;;;5001042;28;20409;-69
2023/06/14 01:31:54;;;;;;;4.20;1.13;;;16.40;78.20;;;;;;5000108;28;20104;-68
2023/06/14 01:34:20;;;;;;;2.80;1.10;;;16.40;78.40;;;;;;4999669;28;20116;-68
2023/06/14 01:36:47;;;;;;;3.20;1.38;;;16.40;78.80;;;;;;5002804;28;20381;-68
2023/06/14 01:39:15;;;;;;;4.47;1.30;;;16.30;78.90;;;;;;5003846;28;20128;-68
2023/06/14 01:41:42;;;;;;;2.75;1.42;;;16.30;79.30;;;;;;5004303;28;20249;-68
2023/06/14 01:44:09;;;;;;;5.57;1.08;;;16.30;79.80;;;;;;5006512;28;20056;-68
2023/06/14 01:46:36;;;;;;;2.83;1.00;;;16.20;81.00;;;;;;5003722;28;20052;-68
2023/06/14 01:49:02;;;;;;;2.25;1.10;;;16.20;80.80;;;;;;5004556;28;20041;-68
2023/06/14 01:51:30;;;;;;;2.92;1.27;;;16.20;81.10;;;;;;5003256;28;20068;-68
2023/06/14 01:53:57;;;;;;;3.17;1.27;;;16.10;81.40;;;;;;4998263;28;20140;-68
2023/06/14 01:56:22;;;;;;;;;;;16.10;81.70;;;;;;4993032;28;20076;-68
2023/06/14 01:58:48;;;;;;;2.20;1.10;;;16.10;83.10;;;;;;5003443;28;19917;-68
2023/06/14 02:01:16;;;;;;;2.20;1.05;;;16.10;82.20;;;;;;5001771;28;20181;-68
2023/06/14 02:03:42;;;;;;;2.97;1.30;;;16.00;82.60;;;;;;5001670;28;20180;-68
2023/06/14 02:06:07;;;;;;;1.92;1.02;;;16.00;82.80;;;;;;4986032;28;20221;-68
2023/06/14 02:08:33;;;;;;;5.00;1.08;;;16.00;83.60;;;;;;4982658;28;20574;-68
2023/06/14 02:10:59;;;;;;;2.78;1.30;;;15.90;83.90;;;;;;5002475;28;20376;-68
2023/06/14 02:13:24;;;;;;;2.67;0.90;;;15.90;84.20;;;;;;4996702;28;20503;-68
2023/06/14 02:15:54;;;;;;;5.85;1.10;;;15.90;84.70;;;;;;5003595;28;20496;-68
2023/06/14 02:18:21;;;;;;;3.15;1.10;;;15.80;85.20;;;;;;5004890;28;20030;-68
2023/06/14 02:20:47;;;;;;;4.38;1.17;;;15.70;85.30;;;;;;4999675;28;20215;-68
2023/06/14 02:23:13;;;;;;;2.25;1.10;;;15.80;85.90;;;;;;5003133;28;20084;-68
2023/06/14 02:25:40;;;;;;;1.83;0.90;;;15.80;86.50;;;;;;4994001;28;20081;-68
2023/06/14 02:28:05;;;;;;;3.03;1.15;;;15.80;86.70;;;;;;4999809;28;20407;-68
2023/06/14 02:30:34;;;;;;;1.70;0.88;;;15.70;87.40;;;;;;4998312;28;20038;-67
2023/06/14 02:33:02;;;;;;;1.95;1.10;;;15.70;87.70;;;;;;4996607;28;20418;-68
2023/06/14 02:35:29;;;;;;;4.20;1.17;;;15.70;88.30;;;;;;5001265;28;20050;-68
2023/06/14 02:37:55;;;;;;;1.83;0.90;;;15.70;89.00;;;;;;4999336;28;20595;-68
2023/06/14 02:40:21;;;;;;;5.57;1.10;;;15.60;89.40;;;;;;5009669;28;20042;-68
2023/06/14 02:42:46;;;;;;;2.08;1.20;;;15.60;90.00;;;;;;5000570;28;20034;-68
2023/06/14 02:45:12;;;;;;;2.75;1.15;;;15.60;90.30;;;;;;4995555;28;20077;-68
2023/06/14 02:47:38;;;;;;;2.20;1.25;;;15.50;90.50;;;;;;4998375;28;20052;-68
2023/06/14 02:50:04;;;;;;;2.83;1.17;;;15.50;90.80;;;;;;4995159;28;20633;-67
2023/06/14 02:52:29;;;;;;;2.53;1.02;;;15.50;91.00;;;;;;5001946;28;20361;-68
2023/06/14 02:54:58;;;;;;;2.00;1.00;;;15.40;91.20;;;;;;4996209;28;20037;-68
2023/06/14 02:57:24;;;;;;;3.78;1.65;;;15.40;91.60;;;;;;5002099;28;20053;-68
2023/06/14 02:59:50;;;;;;;5.85;1.27;;;15.40;91.80;;;;;;5002352;28;20125;-68
2023/06/14 03:02:18;;;;;;;7.13;1.60;;;15.30;92.10;;;;;;5001583;28;20473;-68
2023/06/14 03:04:46;;;;;;;3.30;1.00;;;15.30;92.30;;;;;;5001476;28;20064;-68
2023/06/14 03:07:12;;;;;;;2.92;1.52;;;15.30;92.70;;;;;;5010700;28;20056;-68
2023/06/14 03:09:39;;;;;;;2.00;1.10;;;15.20;92.80;;;;;;5003243;28;20422;-68
2023/06/14 03:12:09;;;;;;;3.92;1.27;;;15.20;93.10;;;;;;5005174;28;20412;-68
2023/06/14 03:14:35;;;;;;;2.38;1.27;;;15.20;93.40;;;;;;4998063;28;20535;-68
2023/06/14 03:17:01;;;;;;;4.22;1.40;;;15.20;93.70;;;;;;4997573;28;20038;-68
2023/06/14 03:19:26;;;;;;;3.80;1.30;;;15.10;94.00;;;;;;4997874;28;20041;-68
2023/06/14 03:21:53;;;;;;;3.40;1.30;;;15.20;94.30;;;;;;4997928;28;20038;-68
2023/06/14 03:24:19;;;;;;;4.32;1.40;;;15.10;94.50;;;;;;5002684;28;20270;-68
2023/06/14 03:26:45;;;;;;;5.68;1.05;;;15.10;94.70;;;;;;5001373;28;20045;-68
2023/06/14 03:29:11;;;;;;;3.15;1.15;;;15.10;95.10;;;;;;4996541;28;20396;-68
2023/06/14 03:31:57;;;;;;;3.03;1.38;;;15.10;95.30;;;;;;5002213;28;20034;-68
2023/06/14 03:34:27;;;;;;;3.83;1.25;;;15.10;95.80;;;;;;4997750;28;20049;-68
2023/06/14 03:36:52;;;;;;;2.50;1.27;;;15.10;96.00;;;;;;5001511;28;20649;-68
2023/06/14 03:39:19;;;;;;;5.90;1.30;;;15.00;96.30;;;;;;5002421;28;20034;-68
2023/06/14 03:41:45;;;;;;;3.55;1.40;;;15.00;96.40;;;;;;5003793;28;20129;-68
2023/06/14 03:44:10;;;;;;;4.38;1.42;;;15.10;96.70;;;;;;5003118;28;20171;-68
2023/06/14 03:46:36;;;;;;;2.23;0.93;;;15.10;96.90;;;;;;5000212;28;20672;-68
2023/06/14 03:49:02;;;;;;;2.43;1.17;;;15.10;97.00;;;;;;4992048;28;20279;-68
2023/06/14 03:51:28;;;;;;;;;;;15.00;97.40;;;;;;4999256;28;20419;-68
2023/06/14 03:53:55;;;;;;;4.13;1.30;;;15.00;98.20;;;;;;5001733;28;19960;-68
2023/06/14 03:56:21;;;;;;;2.38;1.20;;;15.00;97.80;;;;;;4999187;28;20129;-68
2023/06/14 03:58:47;;;;;;;4.55;1.40;;;14.90;98.10;;;;;;4998275;28;20213;-68
2023/06/14 04:01:12;;;;;;;3.03;1.55;;;15.00;98.30;;;;;;5001639;28;20092;-68
2023/06/14 04:03:40;;;;;;;1.83;1.23;;;15.00;98.70;;;;;;4996633;28;20049;-68
2023/06/14 04:06:06;;;;;;;2.60;1.20;;;15.00;98.90;;;;;;4997780;28;20574;-68
2023/06/14 04:08:32;;;;;;;3.45;1.58;;;15.00;99.10;;;;;;4998526;28;20066;-68
2023/06/14 04:10:57;;;;;;;3.17;1.60;;;15.00;99.10;;;;;;4998846;28;20130;-68
2023/06/14 04:13:23;;;;;;;3.72;1.42;;;15.00;99.50;;;;;;5000277;28;20042;-68
2023/06/14 04:15:49;;;;;;;3.88;1.55;;;15.00;99.70;;;;;;5000303;28;20042;-68
2023/06/14 04:18:14;;;;;;;4.40;1.60;;;15.00;99.90;;;;;;4995396;28;20045;-68
2023/06/14 04:20:40;;;;;;;3.40;1.58;;;15.10;99.90;;;;;;4997165;28;20068;-67
2023/06/14 04:23:17;;;;;;;5.18;1.67;;;15.10;99.90;;;;;;5003717;28;20078;-68
2023/06/14 04:25:47;;;;;;;3.20;1.48;;;15.10;99.90;;;;;;5000036;28;20060;-68
2023/06/14 04:28:15;;;;;;;3.38;1.50;;;15.20;99.90;;;;;;4999996;28;20084;-68
2023/06/14 04:30:41;;;;;;;3.38;1.73;;;15.10;99.90;;;;;;4978996;28;20448;-68
2023/06/14 04:33:07;;;;;;;2.88;1.67;;;15.20;99.90;;;;;;4995728;28;20042;-68
2023/06/14 04:35:35;;;;;;;3.53;1.77;;;15.20;99.90;;;;;;5002523;28;20384;-67
2023/06/14 04:38:09;;;;;;;6.03;1.58;;;15.20;99.90;;;;;;4999722;28;20396;-68
2023/06/14 04:40:42;;;;;;;3.83;1.80;;;15.30;99.90;;;;;;5002459;28;20107;-68
2023/06/14 04:43:08;;;;;;;3.65;1.83;;;15.30;99.90;;;;;;5004171;28;20034;-68
2023/06/14 04:45:34;;;;;;;;;;;15.30;99.90;;;;;;5002491;28;20270;-68
2023/06/14 04:48:00;;;;;;;3.28;1.50;;;15.40;99.90;;;;;;5002816;28;19924;-68
2023/06/14 04:50:26;;;;;;;4.32;1.88;;;15.40;99.90;;;;;;5005480;28;20041;-68
2023/06/14 04:52:53;;;;;;;4.97;1.75;;;15.40;99.90;;;;;;5002888;28;20096;-67
2023/06/14 04:55:19;;;;;;;4.65;1.63;;;15.50;99.90;;;;;;5008380;28;20053;-68
2023/06/14 04:57:45;;;;;;;3.90;1.90;;;15.60;99.90;;;;;;5008797;28;20145;-68
2023/06/14 05:00:12;;;;;;;3.13;1.52;;;15.60;99.90;;;;;;5004849;28;20117;-68
2023/06/14 05:02:37;;;;;;;4.75;1.40;;;15.70;99.90;;;;;;5004307;28;20049;-68
2023/06/14 05:05:07;;;;;;;3.13;1.80;;;15.70;99.90;;;;;;5009963;28;20414;-68
2023/06/14 05:07:33;;;;;;;3.85;1.80;;;15.70;99.90;;;;;;5002107;28;20773;-68
2023/06/14 05:09:59;;;;;;;;;;;15.80;99.90;;;;;;5008605;28;20352;-68
2023/06/14 05:12:24;;;;;;;6.47;1.70;;;15.90;99.90;;;;;;5007691;28;19940;-68
2023/06/14 05:14:50;;;;;;;5.88;1.92;;;15.90;99.90;;;;;;5005185;28;20033;-68
2023/06/14 05:17:16;;;;;;;4.90;2.45;;;15.90;99.90;;;;;;5006970;28;20061;-68
2023/06/14 05:19:42;;;;;;;6.25;1.77;;;16.00;99.90;;;;;;5004972;28;20045;-68
2023/06/14 05:22:10;;;;;;;3.97;2.10;;;16.10;99.90;;;;;;5006100;28;20049;-68
2023/06/14 05:24:36;;;;;;;3.92;1.55;;;16.10;99.90;;;;;;5000418;28;20037;-68
2023/06/14 05:27:01;;;;;;;4.95;1.95;;;16.10;99.90;;;;;;5009243;28;20041;-68
2023/06/14 05:29:27;;;;;;;4.03;1.85;;;16.20;99.90;;;;;;5007311;28;20125;-69
2023/06/14 05:31:53;;;;;;;3.00;1.77;;;16.30;99.90;;;;;;5006056;28;20046;-68
2023/06/14 05:34:18;;;;;;;6.78;2.10;;;16.30;99.90;;;;;;5003690;28;20492;-68
2023/06/14 05:36:44;;;;;;;3.55;1.67;;;16.30;99.90;;;;;;4999920;28;20038;-68
2023/06/14 05:39:10;;;;;;;4.72;2.17;;;16.40;99.90;;;;;;4991195;28;20521;-68
2023/06/14 05:41:36;;;;;;;5.05;1.92;;;16.40;99.90;;;;;;5008263;28;20449;-68
2023/06/14 05:44:02;;;;;;;4.20;1.55;;;16.50;99.90;;;;;;5009539;28;20038;-68
2023/06/14 05:46:28;;;;;;;4.88;1.88;;;16.50;99.90;;;;;;5004033;28;20042;-68
2023/06/14 05:48:55;;;;;;;4.57;1.85;;;16.60;99.90;;;;;;5001385;28;20052;-68
2023/06/14 05:51:24;;;;;;;3.13;1.63;;;16.60;99.90;;;;;;4985761;28;20054;-68
2023/06/14 05:53:51;;;;;;;3.00;1.52;;;16.70;99.90;;;;;;5001932;28;20077;-69
2023/06/14 05:56:20;;;;;;;;;;;16.70;99.90;;;;;;5013598;28;20046;-68
2023/06/14 05:58:46;;;;;;;3.35;1.92;;;16.70;99.90;;;;;;5000296;28;19993;-69
2023/06/14 06:01:13;;;;;;;3.42;1.75;;;16.80;99.90;;;;;;5011739;28;20332;-69
2023/06/14 06:03:39;;;;;;;4.57;2.17;;;16.90;99.90;;;;;;5009443;28;20719;-69
2023/06/14 06:06:05;;;;;;;6.05;1.73;;;16.90;99.90;;;;;;5003183;28;20320;-68
2023/06/14 06:08:31;;;;;;;3.42;1.92;;;17.00;99.90;;;;;;5005965;28;20038;-68
2023/06/14 06:10:57;;;;;;;4.97;1.83;;;17.10;99.90;;;;;;5008040;28;20041;-69
2023/06/14 06:13:22;;;;;;;6.50;1.92;;;17.10;99.90;;;;;;5005940;28;20463;-69
2023/06/14 06:15:48;;;;;;;3.60;1.80;;;17.20;99.90;;;;;;5015048;28;20164;-68
2023/06/14 06:18:14;;;;;;;3.85;2.25;;;17.20;99.90;;;;;;5002709;28;20204;-68
2023/06/14 06:20:39;;;;;;;6.20;2.05;;;17.30;99.90;;;;;;5000869;28;20511;-70
2023/06/14 06:23:05;;;;;;;5.45;1.75;;;17.30;99.90;;;;;;5006818;28;20550;-71
2023/06/14 06:25:31;;;;;;;5.53;1.67;;;17.40;99.90;;;;;;5005887;28;20458;-68
2023/06/14 06:27:57;;;;;;;6.63;2.28;;;17.50;99.90;;;;;;4998859;28;20039;-68
2023/06/14 06:30:24;;;;;;;;;;;17.50;99.90;;;;;;4999026;28;20108;-69
2023/06/14 06:32:50;;;;;;;3.08;1.83;;;17.60;99.90;;;;;;5004954;28;19956;-68
2023/06/14 06:35:16;;;;;;;3.80;1.40;;;17.60;99.90;;;;;;5000979;28;20070;-68
2023/06/14 06:37:42;;;;;;;3.70;1.63;;;17.70;99.90;;;;;;4999538;28;20042;-68
2023/06/14 06:40:12;;;;;;;5.70;1.70;;;17.80;99.90;;;;;;5005244;28;20053;-68
2023/06/14 06:42:37;;;;;;;3.47;1.60;;;17.90;99.90;;;;;;5001706;28;20064;-68
2023/06/14 06:45:04;;;;;;;3.47;1.60;;;17.90;99.90;;;;;;5011220;23;20046;-78
2023/06/14 06:47:29;;;;;;;2.92;1.50;;;18.00;99.90;;;;;;5002751;28;20063;-75
2023/06/14 06:49:55;;;;;;;3.55;1.60;;;18.10;99.90;;;;;;4985962;28;20042;-77
2023/06/14 06:52:21;;;;;;;5.93;1.88;;;18.10;99.90;;;;;;4997595;28;20050;-76
2023/06/14 06:54:50;;;;;;;3.45;1.50;;;18.20;99.90;;;;;;4985378;28;20373;-76
2023/06/14 06:57:19;;;;;;;4.30;1.38;;;18.30;99.70;;;;;;4955888;28;20058;-75
2023/06/14 06:59:45;;;;;;;4.00;1.20;;;18.30;99.50;;;;;;4962221;28;20042;-76
2023/06/14 07:02:11;;;;;;;4.53;1.50;;;18.40;99.30;;;;;;4957364;28;20049;-75
2023/06/14 07:04:36;;;;;;;4.05;1.15;;;18.50;99.00;;;;;;4974206;28;20058;-75
2023/06/14 07:07:02;;;;;;;3.72;1.48;;;18.60;98.70;;;;;;4979400;28;20050;-77
2023/06/14 07:09:28;;;;;;;4.68;1.48;;;18.60;98.60;;;;;;4967433;28;20706;-75
2023/06/14 07:11:53;;;;;;;3.33;1.25;;;18.80;98.10;;;;;;4965502;28;20216;-75
2023/06/14 07:14:19;;;;;;;3.92;1.50;;;18.80;97.70;;;;;;4962665;28;20042;-78
2023/06/14 07:16:46;;;;;;;3.03;1.52;;;18.90;97.40;;;;;;4962110;28;20042;-75
2023/06/14 07:19:11;;;;;;;3.00;1.30;;;19.00;97.20;;;;;;4972184;28;20047;-76
2023/06/14 07:21:40;;;;;;;4.50;1.48;;;19.00;96.80;;;;;;4973693;28;20035;-76
2023/06/14 07:24:07;;;;;;;3.28;1.38;;;19.10;96.60;;;;;;4969333;28;20046;-75
2023/06/14 07:26:33;;;;;;;4.00;1.10;;;19.30;96.40;;;;;;4963003;28;20509;-76
2023/06/14 07:28:59;;;;;;;;;;;19.30;96.10;;;;;;4967145;28;20117;-76
2023/06/14 07:31:24;;;;;;;3.28;1.25;;;19.40;95.90;;;;;;4962157;28;20005;-75
2023/06/14 07:33:50;;;;;;;2.80;1.60;;;19.50;95.70;;;;;;4969779;28;20063;-76
2023/06/14 07:36:17;;;;;;;6.68;1.20;;;19.50;95.30;;;;;;4963807;28;20607;-76
2023/06/14 07:38:43;;;;;;;3.03;1.30;;;19.60;95.20;;;;;;4966841;28;20034;-75
2023/06/14 07:41:09;;;;;;;4.53;1.40;;;19.70;95.10;;;;;;4969452;28;20516;-76
2023/06/14 07:43:34;;;;;;;3.63;1.55;;;19.70;95.00;;;;;;4978151;28;20050;-75
2023/06/14 07:46:00;;;;;;;2.75;1.63;;;19.80;94.90;;;;;;4969597;28;20528;-76
2023/06/14 07:48:26;;;;;;;3.13;1.27;;;19.90;94.80;;;;;;4973134;28;20038;-76
2023/06/14 07:50:52;;;;;;;3.90;1.30;;;20.00;94.60;;;;;;4969205;28;20102;-75
2023/06/14 07:53:17;;;;;;;3.08;1.50;;;20.00;94.40;;;;;;4964402;28;20049;-75
2023/06/14 07:55:43;;;;;;;6.65;1.48;;;20.10;94.10;;;;;;4969996;28;20042;-76
2023/06/14 07:58:10;;;;;;;5.57;1.80;;;20.20;93.90;;;;;;4976858;28;20046;-75
2023/06/14 08:00:36;;;;;;;3.58;1.17;;;20.30;94.00;;;;;;4962944;28;20442;-75
2023/06/14 08:03:01;;;;;;;2.70;1.35;;;20.40;93.40;;;;;;4946570;28;20097;-76
2023/06/14 08:05:28;;;;;;;4.60;1.63;;;20.40;93.20;;;;;;4943971;28;20043;-75
2023/06/14 08:07:54;;;;;;;4.35;1.35;;;20.50;93.10;;;;;;4960808;28;20416;-76
2023/06/14 08:10:21;;;;;;;4.80;1.60;;;20.60;92.70;;;;;;4988241;28;20125;-75
2023/06/14 08:12:48;;;;;;;2.63;1.40;;;20.70;92.60;;;;;;4951508;28;20140;-75
2023/06/14 08:15:14;;;;;;;3.15;1.45;;;20.70;92.30;;;;;;4967373;28;20463;-75
2023/06/14 08:17:40;;;;;;;5.95;1.85;;;20.80;92.00;;;;;;4963729;28;20141;-75
2023/06/14 08:20:06;;;;;;;3.70;1.38;;;20.90;91.90;;;;;;4985967;28;20074;-76
2023/06/14 08:22:34;;;;;;;3.42;1.60;;;20.90;91.80;;;;;;4950680;28;20043;-76
2023/06/14 08:25:01;;;;;;;3.00;1.30;;;21.10;91.70;;;;;;4948748;28;20397;-76
2023/06/14 08:27:27;;;;;;;3.65;1.20;;;21.10;91.30;;;;;;4948795;28;20558;-75
2023/06/14 08:29:53;;;;;;;3.67;1.33;;;21.20;91.30;;;;;;4953649;28;20039;-75
2023/06/14 08:32:18;;;;;;;3.60;1.65;;;21.30;91.00;;;;;;4954661;28;20089;-75
2023/06/14 08:34:44;;;;;;;4.45;1.20;;;21.40;90.80;;;;;;4978466;28;20074;-75
2023/06/14 08:37:10;;;;;;;6.40;1.67;;;21.40;90.70;;;;;;4966426;28;20050;-78
2023/06/14 08:39:37;;;;;;;2.63;1.45;;;21.50;90.60;;;;;;4956878;28;20190;-76
2023/06/14 08:42:03;;;;;;;5.07;1.50;;;21.60;90.30;;;;;;4945220;28;20082;-76
2023/06/14 08:44:30;;;;;;;4.93;1.70;;;21.60;90.10;;;;;;4963367;28;20043;-75
2023/06/14 08:47:00;;;;;;;5.13;1.33;;;21.70;89.90;;;;;;4967681;28;20045;-75
2023/06/14 08:49:26;;;;;;;4.95;1.52;;;21.80;89.50;;;;;;4956624;28;20067;-77
2023/06/14 08:51:59;;;;;;;3.42;1.42;;;21.90;89.20;;;;;;4967446;28;20531;-75
2023/06/14 08:54:30;;;;;;;3.33;1.20;;;22.00;88.80;;;;;;4962162;28;20499;-76
2023/06/14 08:56:59;;;;;;;2.92;1.45;;;22.10;88.80;;;;;;4945779;28;20053;-75
2023/06/14 08:59:26;;;;;;;2.85;1.30;;;22.20;88.10;;;;;;4965477;28;20497;-77
2023/06/14 09:01:54;;;;;;;2.58;1.20;;;22.30;87.30;;;;;;4961169;28;20444;-75
2023/06/14 09:04:24;;;;;;;4.03;1.45;;;22.40;87.20;;;;;;4962330;28;20046;-75
2023/06/14 09:06:52;;;;;;;3.33;1.08;;;22.40;87.10;;;;;;4941953;28;20046;-75
2023/06/14 09:09:25;;;;;;;4.35;1.63;;;22.50;86.60;;;;;;4961717;28;20095;-76
2023/06/14 09:11:51;;;;;;;2.63;1.35;;;22.60;86.20;;;;;;4974644;28;20090;-75
2023/06/14 09:14:21;;;;;;;2.90;1.88;;;22.70;85.70;;;;;;4967758;28;20404;-75
2023/06/14 09:16:47;;;;;;;4.32;1.38;;;22.80;85.30;;;;;;4967918;28;20055;-75
2023/06/14 09:19:22;;;;;;;;;;;22.90;85.50;;;;;;4972626;28;20055;-75
2023/06/14 09:21:49;;;;;;;2.67;1.27;;;22.90;84.60;;;;;;4962610;28;19948;-77
2023/06/14 09:24:14;;;;;;;3.88;1.30;;;23.00;84.50;;;;;;4962028;28;20081;-76
2023/06/14 09:26:40;;;;;;;;;;;23.10;84.10;;;;;;4970481;28;20103;-76
2023/06/14 09:29:06;;;;;;;2.78;1.00;;;23.20;83.30;;;;;;4970765;28;19925;-76
2023/06/14 09:31:32;;;;;;;;;;;23.20;83.40;;;;;;4966617;28;20523;-75
2023/06/14 09:34:01;;;;;;;2.30;1.30;;;23.30;81.70;;;;;;4953662;28;20368;-75
2023/06/14 09:36:27;;;;;;;2.60;1.20;;;23.40;82.90;;;;;;4972427;28;20100;-75
2023/06/14 09:39:04;;;;;;;8.32;1.38;;;23.50;81.90;;;;;;4982238;28;20050;-75
2023/06/14 09:41:38;;;;;;;2.03;1.30;;;23.50;81.30;;;;;;4968419;28;20035;-75
2023/06/14 09:44:06;;;;;;;2.55;1.30;;;23.60;80.40;;;;;;4967451;28;20405;-76
2023/06/14 09:46:32;;;;;;;2.33;1.00;;;23.70;80.40;;;;;;4965353;28;20671;-75
2023/06/14 09:48:58;;;;;;;6.35;1.40;;;23.80;80.30;;;;;;4972898;28;20052;-75
2023/06/14 09:51:25;;;;;;;2.42;1.30;;;23.90;79.50;;;;;;4962381;28;20043;-75
2023/06/14 09:53:52;;;;;;;4.65;1.30;;;24.00;78.70;;;;;;4963383;28;20038;-77
2023/06/14 09:56:34;;;;;;;1.73;0.93;;;24.10;78.40;;;;;;4952676;28;20049;-76
2023/06/14 09:59:01;;;;;;;2.50;1.35;;;24.10;78.40;;;;;;4968760;28;20097;-75
2023/06/14 10:01:30;;;;;;;2.63;1.10;;;24.20;78.20;;;;;;4954299;28;20066;-75
2023/06/14 10:04:03;;;;;;;5.80;1.20;;;24.30;78.10;;;;;;4978410;28;20050;-76
2023/06/14 10:06:29;;;;;;;2.85;1.00;;;24.40;77.10;;;;;;4971011;28;20050;-76
2023/06/14 10:08:59;;;;;;;2.00;1.00;;;24.50;76.50;;;;;;4965746;28;20053;-74
2023/06/14 10:11:29;;;;;;;3.88;1.50;;;24.50;75.60;;;;;;4970984;28;20070;-75
2023/06/14 10:13:57;;;;;;;1.95;1.13;;;24.50;75.70;;;;;;4966609;28;20117;-77
2023/06/14 10:16:28;;;;;;;2.20;1.30;;;24.60;76.00;;;;;;4970962;28;20069;-77
2023/06/14 10:19:11;;;;;;;1.98;1.00;;;24.60;75.10;;;;;;4975980;28;20054;-76
2023/06/14 10:22:16;;;;;;;4.63;1.30;;;24.70;74.70;;;;;;4991074;28;20049;-75
2023/06/14 10:24:47;;;;;;;2.53;1.50;;;24.80;74.60;;;;;;4951058;28;20485;-77
2023/06/14 10:27:23;;;;;;;4.10;1.55;;;24.80;74.70;;;;;;4957989;28;20049;-77
2023/06/14 10:29:57;;;;;;;4.60;2.17;;;24.90;75.30;;;;;;4966708;28;20047;-78
2023/06/14 10:32:24;;;;;;;2.80;1.60;;;24.90;75.30;;;;;;4982558;28;20053;-75
2023/06/14 10:35:04;;;;;;;3.72;1.38;;;25.00;75.00;;;;;;4971069;28;20182;-75
2023/06/14 10:37:29;;;;;;;5.43;1.30;;;25.10;74.20;;;;;;4965307;28;20532;-76
2023/06/14 10:39:55;;;;;;;4.28;1.77;;;25.20;74.10;;;;;;4971732;28;20042;-75
2023/06/14 10:42:22;;;;;;;5.35;1.38;;;25.20;72.80;;;;;;4966037;28;20547;-77
2023/06/14 10:44:55;;;;;;;3.47;1.27;;;25.20;72.10;;;;;;4972644;28;20098;-75
2023/06/14 10:47:30;;;;;;;3.25;1.30;;;25.30;71.30;;;;;;4962952;28;20169;-75
2023/06/14 10:50:05;;;;;;;2.13;1.13;;;25.30;70.90;;;;;;4970692;28;20173;-76
2023/06/14 10:52:35;;;;;;;3.03;1.55;;;25.40;72.00;;;;;;4957246;28;20521;-75
2023/06/14 10:55:12;;;;;;;3.63;1.10;;;25.40;72.20;;;;;;4963050;28;20124;-76
2023/06/14 10:57:42;;;;;;;4.95;1.63;;;25.50;72.40;;;;;;4963642;28;20058;-76
2023/06/14 11:00:22;;;;;;;2.40;1.02;;;25.50;71.80;;;;;;4961761;28;20047;-75
2023/06/14 11:03:08;;;;;;;3.55;1.60;;;25.60;71.40;;;;;;4969108;28;20093;-77
2023/06/14 11:05:52;;;;;;;2.35;1.15;;;25.70;71.50;;;;;;4940143;28;20432;-75
2023/06/14 11:08:27;;;;;;;1.40;1.00;;;25.80;71.80;;;;;;4960531;28;20047;-75
2023/06/14 11:10:58;;;;;;;2.83;1.50;;;25.90;71.80;;;;;;4969607;28;20486;-75
2023/06/14 11:13:25;;;;;;;14.02;1.50;;;26.00;71.20;;;;;;4962007;28;20035;-75
2023/06/14 11:15:52;;;;;;;3.05;1.30;;;26.00;70.50;;;;;;4961536;28;20043;-77
2023/06/14 11:18:18;;;;;;;2.90;1.50;;;26.00;70.40;;;;;;4965482;28;20453;-75
2023/06/14 11:20:47;;;;;;;3.00;1.27;;;26.10;70.00;;;;;;4967772;28;20074;-78
2023/06/14 11:23:12;;;;;;;3.90;1.10;;;26.10;69.10;;;;;;4970618;28;20493;-74
2023/06/14 11:25:38;;;;;;;3.92;1.73;;;26.10;68.80;;;;;;4970560;28;20070;-75
2023/06/14 11:28:04;;;;;;;2.92;1.40;;;26.20;68.90;;;;;;4964471;28;20039;-75
2023/06/14 11:30:30;;;;;;;3.58;1.10;;;26.20;68.20;;;;;;4967368;28;20055;-75
2023/06/14 11:32:57;;;;;;;6.18;1.38;;;26.20;68.40;;;;;;4961195;28;20389;-75
2023/06/14 11:35:23;;;;;;;3.83;1.30;;;26.30;67.70;;;;;;4966628;28;20101;-77
2023/06/14 11:37:52;;;;;;;2.78;1.42;;;26.30;67.20;;;;;;4978964;28;20094;-74
2023/06/14 11:40:18;;;;;;;4.47;1.77;;;26.30;67.20;;;;;;4970311;28;20570;-76
2023/06/14 11:42:43;;;;;;;7.55;1.25;;;26.40;66.80;;;;;;4968885;28;20571;-74
2023/06/14 11:45:11;;;;;;;2.55;1.17;;;26.50;66.60;;;;;;4965254;28;20053;-75
2023/06/14 11:47:39;;;;;;;2.97;0.98;;;26.60;66.70;;;;;;4976839;28;20046;-75
2023/06/14 11:50:08;;;;;;;2.47;1.25;;;26.60;66.80;;;;;;4966775;28;20497;-76
2023/06/14 11:52:34;;;;;;;5.88;1.20;;;26.70;66.70;;;;;;4956868;28;20106;-75
2023/06/14 11:55:04;;;;;;;2.80;1.13;;;26.70;67.20;;;;;;4969268;28;20037;-75
2023/06/14 11:57:30;;;;;;;5.70;1.40;;;26.80;67.40;;;;;;4958761;28;20394;-75
2023/06/14 11:59:56;;;;;;;2.40;1.20;;;26.90;67.30;;;;;;4948317;28;20050;-75
2023/06/14 12:02:22;;;;;;;2.88;1.00;;;26.90;66.80;;;;;;4961674;28;20062;-76
2023/06/14 12:04:48;;;;;;;4.20;1.17;;;27.00;66.70;;;;;;4975565;28;20050;-76
2023/06/14 12:07:17;;;;;;;2.17;1.20;;;27.00;66.80;;;;;;4959710;28;20072;-77
2023/06/14 12:10:06;;;;;;;4.82;1.40;;;27.00;66.10;;;;;;4964340;28;20121;-75
2023/06/14 12:12:36;;;;;;;2.58;1.20;;;27.10;65.90;;;;;;4981973;28;20050;-76
2023/06/14 12:15:07;;;;;;;1.88;1.00;;;27.10;66.30;;;;;;4960080;28;20118;-75
2023/06/14 12:17:41;;;;;;;2.28;1.08;;;27.20;65.60;;;;;;4983299;28;20070;-75
2023/06/14 12:20:10;;;;;;;3.45;1.30;;;27.20;64.90;;;;;;4951782;28;20041;-75
2023/06/14 12:22:37;;;;;;;2.60;1.20;;;27.20;64.40;;;;;;4969046;28;20047;-77
2023/06/14 12:25:04;;;;;;;2.72;1.05;;;27.20;64.50;;;;;;4961616;28;20042;-75
2023/06/14 12:27:30;;;;;;;3.47;1.10;;;27.30;64.60;;;;;;4965387;28;20043;-76
2023/06/14 12:30:03;;;;;;;2.30;1.15;;;27.40;64.40;;;;;;4966928;28;20118;-77
2023/06/14 12:32:29;;;;;;;1.70;1.08;;;27.40;64.30;;;;;;4960249;28;20065;-77
2023/06/14 12:34:55;;;;;;;2.30;0.95;;;27.50;63.50;;;;;;4983869;28;20546;-75
2023/06/14 12:37:21;;;;;;;3.50;0.90;;;27.60;62.40;;;;;;4946303;28;20054;-76
2023/06/14 12:39:47;;;;;;;1.80;0.90;;;27.40;62.00;;;;;;4981240;28;20046;-75
2023/06/14 12:42:14;;;;;;;3.40;0.93;;;27.40;62.30;;;;;;4948719;28;20035;-75
2023/06/14 12:44:40;;;;;;;1.50;0.77;;;27.50;61.30;;;;;;4960805;28;20047;-76
2023/06/14 12:47:07;;;;;;;3.22;1.23;;;27.60;60.90;;;;;;4966831;28;20046;-76
2023/06/14 12:49:33;;;;;;;1.73;0.95;;;27.70;61.00;;;;;;4964071;28;20100;-75
2023/06/14 12:51:59;;;;;;;4.90;0.82;;;27.80;60.60;;;;;;4970327;28;20073;-77